Time,TemperatureF,DewpointF,PressureIn,WindDirection,WindDirectionDegrees,WindSpeedMPH,WindSpeedGustMPH,Humidity,HourlyPrecipIn,Conditions,Clouds,dailyrainin,SoftwareType,DateUTC
2013-06-18 00:06:00,67.6,61.0,29.90,East,83,3.0,11.0,79,0.00,,,0.00,weatherlink.com 1.10,2013-06-18 04:06:00,
2013-06-18 00:21:00,67.6,61.0,29.90,NE,36,0.0,3.0,78,0.00,,,0.00,weatherlink.com 1.10,2013-06-18 04:21:00,
2013-06-18 00:36:00,67.3,60.0,29.89,NNE,33,1.0,4.0,78,0.00,,,0.00,weatherlink.com 1.10,2013-06-18 04:36:00,
2013-06-18 00:51:00,67.2,61.0,29.88,WNW,289,1.0,3.0,81,0.00,,,0.00,weatherlink.com 1.10,2013-06-18 04:51:00,
2013-06-18 01:06:00,66.8,60.0,29.87,East,84,0.0,3.0,80,0.00,,,0.00,weatherlink.com 1.10,2013-06-18 05:06:00,
2013-06-18 01:21:00,66.5,60.0,29.87,ENE,77,0.0,2.0,79,0.00,,,0.00,weatherlink.com 1.10,2013-06-18 05:21:00,
2013-06-18 01:36:00,66.1,60.0,29.86,ENE,77,0.0,0.0,81,0.00,,,0.00,weatherlink.com 1.10,2013-06-18 05:36:00,
2013-06-18 01:51:00,65.7,60.0,29.85,NE,42,0.0,2.0,82,0.00,,,0.00,weatherlink.com 1.10,2013-06-18 05:51:00,
2013-06-18 02:06:00,65.4,60.0,29.85,North,4,0.0,1.0,82,0.00,,,0.00,weatherlink.com 1.10,2013-06-18 06:06:00,
2013-06-18 02:21:00,65.3,60.0,29.85,NE,41,0.0,2.0,82,0.00,,,0.00,weatherlink.com 1.10,2013-06-18 06:21:00,
2013-06-18 02:36:00,65.3,60.0,29.85,NNW,340,0.0,2.0,83,0.00,,,0.00,weatherlink.com 1.10,2013-06-18 06:36:00,
2013-06-18 02:51:00,65.2,60.0,29.85,North,359,0.0,1.0,83,0.00,,,0.00,weatherlink.com 1.10,2013-06-18 06:51:00,
2013-06-18 03:06:00,65.2,60.0,29.84,North,359,0.0,1.0,83,0.00,,,0.00,weatherlink.com 1.10,2013-06-18 07:06:00,
2013-06-18 03:21:00,65.0,59.0,29.84,North,359,1.0,2.0,82,0.00,,,0.00,weatherlink.com 1.10,2013-06-18 07:21:00,
2013-06-18 03:36:00,65.0,60.0,29.84,ENE,70,0.0,2.0,83,0.00,,,0.00,weatherlink.com 1.10,2013-06-18 07:36:00,
2013-06-18 03:51:00,64.9,60.0,29.85,ENE,69,0.0,2.0,83,0.00,,,0.00,weatherlink.com 1.10,2013-06-18 07:51:00,
2013-06-18 04:06:00,64.6,60.0,29.84,ENE,70,0.0,1.0,85,0.00,,,0.00,weatherlink.com 1.10,2013-06-18 08:06:00,
2013-06-18 04:21:00,64.3,60.0,29.84,ENE,70,0.0,1.0,86,0.00,,,0.00,weatherlink.com 1.10,2013-06-18 08:21:00,
2013-06-18 04:36:00,64.1,60.0,29.84,ENE,69,0.0,0.0,86,0.00,,,0.00,weatherlink.com 1.10,2013-06-18 08:36:00,
2013-06-18 04:51:00,63.9,59.0,29.85,ENE,69,0.0,1.0,85,0.00,,,0.00,weatherlink.com 1.10,2013-06-18 08:51:00,
2013-06-18 05:06:00,63.7,59.0,29.86,ENE,69,0.0,0.0,85,0.00,,,0.00,weatherlink.com 1.10,2013-06-18 09:06:00,
2013-06-18 05:21:00,63.5,59.0,29.86,ENE,69,0.0,2.0,86,0.00,,,0.00,weatherlink.com 1.10,2013-06-18 09:21:00,
2013-06-18 05:36:00,63.2,59.0,29.86,ENE,69,0.0,1.0,86,0.00,,,0.00,weatherlink.com 1.10,2013-06-18 09:36:00,
2013-06-18 05:51:00,63.0,59.0,29.87,ENE,69,0.0,1.0,86,0.00,,,0.00,weatherlink.com 1.10,2013-06-18 09:51:00,
2013-06-18 06:06:00,62.9,59.0,29.87,ENE,69,0.0,0.0,87,0.00,,,0.00,weatherlink.com 1.10,2013-06-18 10:06:00,
2013-06-18 06:21:00,62.7,59.0,29.88,ENE,69,0.0,0.0,87,0.00,,,0.00,weatherlink.com 1.10,2013-06-18 10:21:00,
2013-06-18 06:36:00,62.7,59.0,29.88,ENE,70,0.0,1.0,88,0.00,,,0.00,weatherlink.com 1.10,2013-06-18 10:36:00,
2013-06-18 06:51:00,62.9,59.0,29.88,ENE,69,0.0,0.0,88,0.00,,,0.00,weatherlink.com 1.10,2013-06-18 10:51:00,
2013-06-18 07:06:00,63.2,60.0,29.88,ENE,69,0.0,0.0,89,0.00,,,0.00,weatherlink.com 1.10,2013-06-18 11:06:00,
2013-06-18 07:21:00,63.6,60.0,29.87,East,101,2.0,2.0,89,0.00,,,0.00,weatherlink.com 1.10,2013-06-18 11:21:00,
2013-06-18 07:36:00,64.1,60.0,29.86,NE,38,0.0,4.0,87,0.00,,,0.00,weatherlink.com 1.10,2013-06-18 11:36:00,
2013-06-18 07:51:00,64.9,61.0,29.86,ENE,69,0.0,3.0,86,0.00,,,0.00,weatherlink.com 1.10,2013-06-18 11:51:00,
2013-06-18 08:06:00,65.4,61.0,29.87,NNW,340,2.0,3.0,85,0.00,,,0.00,weatherlink.com 1.10,2013-06-18 12:06:00,
2013-06-18 08:21:00,65.7,61.0,29.87,North,354,0.0,2.0,84,0.00,,,0.00,weatherlink.com 1.10,2013-06-18 12:21:00,
2013-06-18 08:36:00,65.9,61.0,29.88,ENE,61,0.0,2.0,84,0.00,,,0.00,weatherlink.com 1.10,2013-06-18 12:36:00,
2013-06-18 08:51:00,66.6,61.0,29.88,NE,48,3.0,6.0,82,0.00,,,0.00,weatherlink.com 1.10,2013-06-18 12:51:00,
2013-06-18 09:06:00,66.8,61.0,29.89,ENE,70,2.0,5.0,81,0.00,,,0.00,weatherlink.com 1.10,2013-06-18 13:06:00,
2013-06-18 09:21:00,67.0,61.0,29.89,NE,43,2.0,5.0,81,0.00,,,0.00,weatherlink.com 1.10,2013-06-18 13:21:00,
2013-06-18 09:36:00,67.2,61.0,29.90,NE,43,3.0,5.0,80,0.00,,,0.00,weatherlink.com 1.10,2013-06-18 13:36:00,
2013-06-18 09:51:00,69.6,63.0,29.90,North,8,4.0,8.0,79,0.00,,,0.00,weatherlink.com 1.10,2013-06-18 13:51:00,
2013-06-18 10:07:00,69.4,63.0,29.90,NE,51,1.0,6.0,79,0.00,,,0.00,weatherlink.com 1.10,2013-06-18 14:07:00,
2013-06-18 10:22:00,70.4,63.0,29.91,NE,40,0.0,9.0,76,0.00,,,0.00,weatherlink.com 1.10,2013-06-18 14:22:00,
2013-06-18 10:37:00,71.3,64.0,29.90,NNW,347,5.0,9.0,77,0.00,,,0.00,weatherlink.com 1.10,2013-06-18 14:37:00,
2013-06-18 10:52:00,71.9,63.0,29.89,ENE,58,2.0,7.0,73,0.00,,,0.00,weatherlink.com 1.10,2013-06-18 14:52:00,
2013-06-18 11:07:00,72.8,64.0,29.91,NNE,27,6.0,9.0,74,0.00,,,0.00,weatherlink.com 1.10,2013-06-18 15:07:00,
2013-06-18 11:22:00,72.7,63.0,29.91,ENE,78,2.0,9.0,71,0.00,,,0.00,weatherlink.com 1.10,2013-06-18 15:22:00,
2013-06-18 11:37:00,73.1,63.0,29.91,NE,48,3.0,8.0,70,0.00,,,0.00,weatherlink.com 1.10,2013-06-18 15:37:00,
2013-06-18 11:52:00,73.1,61.0,29.91,ESE,116,4.0,13.0,67,0.00,,,0.00,weatherlink.com 1.10,2013-06-18 15:52:00,
2013-06-18 12:07:00,72.3,61.0,29.91,ENE,63,1.0,14.0,68,0.00,,,0.00,weatherlink.com 1.10,2013-06-18 16:07:00,
2013-06-18 12:22:00,71.5,61.0,29.91,North,8,4.0,12.0,69,0.00,,,0.00,weatherlink.com 1.10,2013-06-18 16:22:00,
2013-06-18 12:37:00,71.8,61.0,29.91,NE,48,4.0,10.0,68,0.00,,,0.00,weatherlink.com 1.10,2013-06-18 16:37:00,
2013-06-18 12:52:00,71.8,61.0,29.92,North,10,5.0,12.0,69,0.00,,,0.00,weatherlink.com 1.10,2013-06-18 16:52:00,
2013-06-18 13:07:00,72.5,61.0,29.91,NE,43,1.0,11.0,67,0.00,,,0.00,weatherlink.com 1.10,2013-06-18 17:07:00,
2013-06-18 13:22:00,72.5,60.0,29.91,ENE,68,11.0,11.0,66,0.00,,,0.00,weatherlink.com 1.10,2013-06-18 17:22:00,
2013-06-18 13:37:00,72.5,61.0,29.91,NE,42,0.0,9.0,68,0.00,,,0.00,weatherlink.com 1.10,2013-06-18 17:37:00,
2013-06-18 13:52:00,71.5,61.0,29.92,North,354,3.0,15.0,69,0.00,,,0.00,weatherlink.com 1.10,2013-06-18 17:52:00,
2013-06-18 14:07:00,69.6,61.0,29.92,NE,42,6.0,12.0,74,0.00,,,0.00,weatherlink.com 1.10,2013-06-18 18:07:00,
2013-06-18 14:22:00,69.5,60.0,29.92,SW,221,0.0,16.0,72,0.00,,,0.00,weatherlink.com 1.10,2013-06-18 18:22:00,
2013-06-18 14:37:00,69.9,60.0,29.92,North,4,5.0,11.0,70,0.00,,,0.00,weatherlink.com 1.10,2013-06-18 18:37:00,
2013-06-18 14:52:00,69.2,60.0,29.93,NNE,22,8.0,17.0,72,0.00,,,0.00,weatherlink.com 1.10,2013-06-18 18:52:00,
2013-06-18 15:07:00,69.5,61.0,29.92,North,11,5.0,12.0,73,0.00,,,0.00,weatherlink.com 1.10,2013-06-18 19:07:00,
2013-06-18 15:22:00,69.6,60.0,29.92,NE,48,2.0,13.0,71,0.00,,,0.00,weatherlink.com 1.10,2013-06-18 19:22:00,
2013-06-18 15:37:00,69.2,59.0,29.92,ENE,68,7.0,14.0,70,0.00,,,0.00,weatherlink.com 1.10,2013-06-18 19:37:00,
2013-06-18 15:52:00,69.2,59.0,29.92,North,350,4.0,16.0,69,0.00,,,0.00,weatherlink.com 1.10,2013-06-18 19:52:00,
2013-06-18 16:07:00,68.6,59.0,29.92,NE,35,13.0,18.0,71,0.00,,,0.00,weatherlink.com 1.10,2013-06-18 20:07:00,
2013-06-18 16:22:00,69.6,59.0,29.92,ENE,68,9.0,13.0,69,0.00,,,0.00,weatherlink.com 1.10,2013-06-18 20:22:00,
2013-06-18 16:37:00,68.8,58.0,29.92,NNW,341,4.0,16.0,69,0.00,,,0.00,weatherlink.com 1.10,2013-06-18 20:37:00,
2013-06-18 16:52:00,68.6,57.0,29.92,East,90,3.0,17.0,66,0.00,,,0.00,weatherlink.com 1.10,2013-06-18 20:52:00,
2013-06-18 17:07:00,70.2,58.0,29.92,North,359,6.0,14.0,65,0.00,,,0.00,weatherlink.com 1.10,2013-06-18 21:07:00,
2013-06-18 17:22:00,70.0,58.0,29.92,East,81,5.0,12.0,66,0.00,,,0.00,weatherlink.com 1.10,2013-06-18 21:22:00,
2013-06-18 17:37:00,71.3,57.0,29.92,NNE,22,3.0,13.0,62,0.00,,,0.00,weatherlink.com 1.10,2013-06-18 21:37:00,
2013-06-18 17:52:00,71.9,57.0,29.92,NNE,13,2.0,10.0,60,0.00,,,0.00,weatherlink.com 1.10,2013-06-18 21:52:00,
2013-06-18 18:07:00,71.4,56.0,29.92,East,97,8.0,11.0,59,0.00,,,0.00,weatherlink.com 1.10,2013-06-18 22:07:00,
2013-06-18 18:22:00,70.2,56.0,29.92,NNE,29,1.0,13.0,62,0.00,,,0.00,weatherlink.com 1.10,2013-06-18 22:22:00,
2013-06-18 18:37:00,70.0,57.0,29.93,NE,41,2.0,14.0,63,0.00,,,0.00,weatherlink.com 1.10,2013-06-18 22:37:00,
2013-06-18 18:52:00,69.1,56.0,29.93,SE,124,5.0,11.0,64,0.00,,,0.00,weatherlink.com 1.10,2013-06-18 22:52:00,
2013-06-18 19:07:00,68.6,56.0,29.93,NE,39,1.0,11.0,64,0.00,,,0.00,weatherlink.com 1.10,2013-06-18 23:07:00,
2013-06-18 19:22:00,68.4,56.0,29.93,East,92,3.0,13.0,64,0.00,,,0.00,weatherlink.com 1.10,2013-06-18 23:22:00,
2013-06-18 19:37:00,67.9,55.0,29.94,NE,56,2.0,11.0,63,0.00,,,0.00,weatherlink.com 1.10,2013-06-18 23:37:00,
2013-06-18 19:52:00,67.2,54.0,29.95,NE,35,1.0,15.0,63,0.00,,,0.00,weatherlink.com 1.10,2013-06-18 23:52:00,
2013-06-18 20:07:00,66.7,54.0,29.95,NE,39,5.0,10.0,64,0.00,,,0.00,weatherlink.com 1.10,2013-06-19 00:07:00,
2013-06-18 20:22:00,66.3,53.0,29.95,ENE,75,5.0,9.0,63,0.00,,,0.00,weatherlink.com 1.10,2013-06-19 00:22:00,
2013-06-18 20:38:00,65.9,53.0,29.96,NNW,346,7.0,9.0,64,0.00,,,0.00,weatherlink.com 1.10,2013-06-19 00:38:00,
2013-06-18 20:52:00,65.5,53.0,29.96,ENE,65,4.0,8.0,65,0.00,,,0.00,weatherlink.com 1.10,2013-06-19 00:52:00,
2013-06-18 21:07:00,65.0,53.0,29.98,NNW,343,3.0,7.0,66,0.00,,,0.00,weatherlink.com 1.10,2013-06-19 01:07:00,
2013-06-18 21:22:00,64.5,54.0,29.98,NE,54,0.0,8.0,68,0.00,,,0.00,weatherlink.com 1.10,2013-06-19 01:22:00,
2013-06-18 21:38:00,64.1,54.0,29.98,NNW,340,0.0,5.0,69,0.00,,,0.00,weatherlink.com 1.10,2013-06-19 01:38:00,
2013-06-18 21:53:00,63.8,54.0,29.99,NE,56,0.0,3.0,71,0.00,,,0.00,weatherlink.com 1.10,2013-06-19 01:53:00,
2013-06-18 22:08:00,63.4,54.0,29.99,NNE,17,2.0,3.0,72,0.00,,,0.00,weatherlink.com 1.10,2013-06-19 02:08:00,
2013-06-18 22:23:00,63.0,55.0,30.00,NE,53,1.0,3.0,75,0.00,,,0.00,weatherlink.com 1.10,2013-06-19 02:23:00,
2013-06-18 22:38:00,62.6,55.0,30.00,NE,54,0.0,2.0,77,0.00,,,0.00,weatherlink.com 1.10,2013-06-19 02:38:00,
2013-06-18 22:53:00,62.2,55.0,30.00,NNE,29,0.0,6.0,77,0.00,,,0.00,weatherlink.com 1.10,2013-06-19 02:53:00,
2013-06-18 23:08:00,62.0,55.0,30.00,NNE,28,0.0,1.0,78,0.00,,,0.00,weatherlink.com 1.10,2013-06-19 03:08:00,
2013-06-18 23:23:00,61.6,55.0,30.00,NNE,29,0.0,2.0,79,0.00,,,0.00,weatherlink.com 1.10,2013-06-19 03:23:00,
2013-06-18 23:38:00,61.0,55.0,30.01,NNE,19,0.0,1.0,80,0.00,,,0.00,weatherlink.com 1.10,2013-06-19 03:38:00,
2013-06-18 23:53:00,60.5,55.0,30.01,NNE,19,0.0,0.0,81,0.00,,,0.00,weatherlink.com 1.10,2013-06-19 03:53:00,